Nationale Nord-Est Moissey (39) - H

Date : 10/04/2016

Place Nom Licence Catégorie Club Temps CN à J-60 Points Différence Nouveau CN
1 TAILLANDIER Guy 1583 H70 0801CA 0:24:40 5038 5163 +125 5344
2 VENON Gérard 2738 H70 2105BO 0:26:24 5075 4824 -251 4904
3 COLOMBET Christian 3163 H70 2108BO 0:27:30 4560 4631 +71 4766
4 ROBERT Christian 1086 H70 7004FC 0:27:42 4139 4597 +458 4312
5 MOUGEL Gabriel 3303 H70 8809LO 0:29:22 4171 4336 +165 3971
6 GOLMARD Christian 2669 H70 3801RA 0:29:36 4221 4302 +81 4289
7 BONNET Christine 2400 D60 5402LO 0:30:38 4419 4157 -262 4307
8 PETIT Guyonne 4372 D60 7808IF 0:31:16 4464 4073 -391 4424
9 DEVILLE Nelly 2401 D65 5402LO 0:31:32 3756 4038 +282 3844
10 VAGNER Christine 3651 D60 5702LO 0:32:00 4088 3980 -108 4012
11 ABISSE Jacques 703 H70 2508FC 0:32:23 4219 3932 -287 4117
12 DUBROCA Monique 633 D65 3308AQ 0:32:51 4155 3877 -278 4177
13 LASSALLE J-Paul 1677 H70 0111RA 0:33:00 3859 3627
14 SINIBALDI Marc 1347 H75 3801RA 0:33:49 3956 3766 -190 4232
15 VILLEDIEU Martine 13752 D60 4201RA 0:33:56 3634 3753 +119 3786
16 TINCHANT Jean-Marc 746 H70 2517FC 0:34:39 3142 3675 +533 3263
17 ANNE Brigitte 1672 D65 0111RA 0:34:56 3926 3645 -281 4111
18 BENACEK Vaclav 2368 H70 6806AL 0:35:03 3627 3633 +6 3606
19 RICHARD Nicole 14245 D65 0207PI 0:35:24 3540 3597 +57 3576
20 EGGLI Roland 5938 H70 6803AL 0:35:32 4486 3584 -902 4570
21 KENANE Abdelkader 1448 H75 5501LO 0:35:44 3949 3564 -385 3639
22 PIGER Albert 116 H75 4504CE 0:37:45 2571 3373 +802 3036
23 ANTOINE Regis 1276 H75 7108BO 0:37:48 3022 3369 +347 3314
24 MERIGUET Valérie 16687 D45 7807IF 0:38:39 3072 3295 +223 3078
25 GATY Daniele 841 D60 4203RA 0:38:56 3922 3271 -651 3961
26 PAOLUCCI Christiane 4378 D60 5703LO 0:39:07 3074 3256 +182 3218
27 VOGT Claude 2558 H70 6709AL 0:39:11 3495 3250 -245 3662
28 BEGU Aurore 9042 D40 7722IF 0:40:05 3130 3177 +47 3157
29 EGGLI Margrit 27392 D65 6803AL 0:40:05 3628 3177 -451 3497
30 LEMERCIER Celine 10527 D40 5703LO 0:40:10 4629 3170 -1459 4561
31 JEANPIERRE M-Therese 3302 D70 8809LO 0:40:36 2839 3137 +298 3022
32 LABBE Joelle 32574 D45 2104BO 0:40:38 3134 2354
33 VAYSSE Isabelle 16455 D45 7305RA 0:40:49 3081 3120 +39 3133
34 LOISY Sylvie 25576 D60 2104BO 0:40:58 2918 3109 +191 3037
35 INDEAUX Catherine 10394 D45 6913RA 0:41:09 2543 3095 +552 2756
36 BAUDRY J-Claude 1693 H70 1705PC 0:41:25 3184 3075 -109 3110
37 GEROMEY Dominique 3717 H70 8809LO 0:41:44 2148 3051 +903 2398
38 JAGLE Jean-Marc 3512 H70 0111RA 0:42:01 3031 3480
39 LOISY Jacques 27732 H60 2104BO 0:42:06 2568 3025 +457 2662
40 SIMONET Jean 930 H70 7707IF 0:42:55 4163 2967 -1196 4195
41 CERET Martine 4597 D60 4203RA 0:44:49 2902 2842 -60 2964
42 CHALOPIN Catherine 3674 D65 2105BO 0:45:14 3485 2815 -670 3476
43 MONTANARI Colette 2533 D65 5703LO 0:46:26 3039 2743 -296 3043
44 GUET Martine 11810 D60 6906RA 0:47:44 2711 2668 -43 2650
45 GILQUIN Gérard 27762 H75 2108BO 0:47:54 1654 2659 +1005 2501
46 BLAISE Danielle 31358 D40 1307PZ 0:48:01 1804 2652 +848 2260
47 GIRARD Florence 22478 D45 2508FC 0:48:18 2219 2637 +418 2400
48 BASTIEN-FATH Nicole 8954 D70 5402LO 0:48:19 2342 2636 +294 2348
49 ZAHN Sylvain 29200 H45 2104BO 0:48:28 2308 2628 +320 2456
50 RIFFARD J-Claude 2445 H75 5702LO 0:48:47 3301 2610 -691 2853
51 MOULIERE M-Bernadette 2888 D70 0207PI 0:48:47 2961 2610 -351 2895
52 ABISSE Gisele 701 D70 2508FC 0:49:05 2812 2595 -217 2800
53 BOUVERET Michelle 12102 D60 2508FC 0:50:09 3088 2539 -549 3076
54 ETIENNE Bernadette 15324 D65 8807LO 0:51:51 2844 2456 -388 2844
55 OUDIN M-Reine 7574 D65 6804AL 0:52:09 3211 2442 -769 3206
56 FINO Béatrice 1674 D45 0111RA 0:52:14 2840 2438 -402 2950
57 GOLMARD Chantal 2668 D60 2101BO 0:52:30 3314 2426 -888 3254
58 GROSJEAN Pierre 12354 H75 6913RA 0:53:33 2871 2378 -493 2850
59 FEHLEN Jacqueline 20808 D70 5407LO 0:53:51 637 2365 +1728 1466
60 FISCHER Christiane 27627 D65 6803AL 0:54:12 2043 2350 +307 2306
61 MOUGEL Danielle 7910 D65 8809LO 0:54:48 2426 2324 -102 2127
62 HABERKORN Didier 2716 H75 2105BO 0:55:21 0 2301 2163
63 LEMERCIER Jocelyne 2474 D65 5407LO 0:55:40 2453 2288 -165 2396
64 KIEFFER Mireille 2680 D65 2101BO 0:56:19 2243 2261 +18 2211
65 MEUNIER Christelle 29417 D40 0111RA 0:56:26 1251 2257 +1006 2212
66 BEAUVISAGE Fabienne 13740 D50 7807IF 0:56:28 2419 2255 -164 2202
67 AST Norbert 2512 H70 8809LO 0:56:40 2764 2247 -517 2004
68 LAURENT Therese 725 D80 2508FC 0:58:57 2162 2160 -2 2162
69 GROSJEAN A-Marie 12059 D75 6913RA 1:00:31 2264 2104 -160 2306
70 POLIDORE Véronique 30840 D45 6911RA 1:00:34 1624 2103 +479 1820
71 BEGUINOT Jacques 1443 H75 5501LO 1:02:09 1597 2049 +452 1915
72 POGU Paulette 4671 D65 5402LO 1:02:34 2581 2035 -546 2237
73 DENIS Martine 12377 D70 9404IF 1:02:36 2554 2034 -520 2521
74 RUAUD Agnes 739 D65 2508FC 1:04:36 1984 1971 -13 2083
75 PINEAU Noelle 4678 D40 5702LO 1:05:13 2421 1953 -468 2512
76 GUICHARDON Georges 570 H80 4504CE 1:09:00 1846 1447
77 PIGER Ghislaine 117 D75 4504CE 1:12:48 1991 1749 -242 2119
78 AST Claudine 2511 D70 8809LO 1:18:49 1840 1616 -224 1502
79 LUDEWIG-JAMES Carol 15894 D75 5907NO 1:37:40 1203 1304 +101 1460
ROBERT Martine 1087 D65 7004FC abandon 3620 0 3732